Time;durP1;ratioP1;P1;durP2;ratioP2;P2;SDS_P1;SDS_P2;PMS_P1;PMS_P2;Temp;Humidity;BMP_temperature;BMP_pressure;BME280_temperature;BME280_humidity;BME280_pressure;Samples;Min_cycle;Max_cycle;Signal;HPM_P1;HPM_P2
2021/10/06 00:00:57;;;;;;;;;1.00;1.00;;;;;21.26;46.71;101201.53;4992542;28;51108;-40
2021/10/06 00:03:22;;;;;;;;;2.00;1.00;;;;;21.25;46.29;101211.63;4983589;28;51921;-40
2021/10/06 00:05:47;;;;;;;;;2.00;1.00;;;;;21.25;46.58;101206.13;4985263;28;51074;-41
2021/10/06 00:08:13;;;;;;;;;0.00;0.00;;;;;21.26;46.68;101207.88;4982499;28;51340;-40
2021/10/06 00:10:39;;;;;;;;;0.50;0.50;;;;;21.26;46.40;101215.31;4984024;28;51345;-40
2021/10/06 00:13:04;;;;;;;;;1.00;1.00;;;;;21.25;46.47;101221.81;4964961;28;50971;-40
2021/10/06 00:15:30;;;;;;;;;1.00;1.00;;;;;21.25;46.67;101233.69;4981615;28;51157;-40
2021/10/06 00:17:55;;;;;;;;;1.00;1.00;;;;;21.25;46.21;101238.34;4989139;28;51463;-40
2021/10/06 00:20:21;;;;;;;;;0.75;0.50;;;;;21.25;46.13;101232.84;4988530;28;51079;-40
2021/10/06 00:22:46;;;;;;;;;1.50;1.50;;;;;21.24;46.72;101243.03;4996324;28;51138;-43
2021/10/06 00:25:12;;;;;;;;;0.25;0.25;;;;;21.23;46.58;101251.50;4999130;28;51431;-40
2021/10/06 00:27:37;;;;;;;;;2.75;1.00;;;;;21.23;46.22;101251.50;4993870;28;52196;-40
2021/10/06 00:30:03;;;;;;;;;0.75;0.75;;;;;21.22;46.29;101249.81;4980455;28;50911;-40
2021/10/06 00:32:29;;;;;;;;;0.25;0.25;;;;;21.22;46.83;101250.66;4995747;28;51618;-40
2021/10/06 00:34:54;;;;;;;;;0.00;0.00;;;;;21.22;46.62;101256.16;4998606;28;51029;-40
2021/10/06 00:37:20;;;;;;;;;1.00;0.75;;;;;21.21;46.44;101260.00;4993132;28;51064;-39
2021/10/06 00:39:45;;;;;;;;;0.75;0.00;;;;;21.20;46.71;101258.31;4990881;28;51227;-40
2021/10/06 00:42:11;;;;;;;;;0.00;0.00;;;;;21.21;46.68;101262.75;4994176;28;51002;-41
2021/10/06 00:44:37;;;;;;;;;0.00;0.00;;;;;21.21;46.60;101267.41;4997874;28;51251;-40
2021/10/06 00:47:03;;;;;;;;;2.00;1.25;;;;;21.20;46.87;101262.97;4995239;28;51345;-40
2021/10/06 00:49:29;;;;;;;;;2.25;1.00;;;;;21.19;46.85;101262.13;4998701;28;51318;-40
2021/10/06 00:51:55;;;;;;;;;1.00;1.00;;;;;21.20;46.24;101262.97;4996186;28;51455;-40
2021/10/06 00:54:20;;;;;;;;;1.25;1.00;;;;;21.19;46.78;101267.63;4986963;28;51328;-40
2021/10/06 00:56:46;;;;;;;;;0.00;0.00;;;;;21.19;46.76;101270.38;4982414;28;51629;-40
2021/10/06 00:59:11;;;;;;;;;1.00;0.00;;;;;21.18;46.62;101257.69;4994125;28;50970;-40
2021/10/06 01:01:36;;;;;;;;;0.00;0.00;;;;;21.18;46.83;101260.44;4994794;28;51765;-40
2021/10/06 01:04:03;;;;;;;;;0.75;0.00;;;;;21.18;46.46;101262.34;4974119;28;51341;-40
2021/10/06 01:06:30;;;;;;;;;0.00;0.00;;;;;21.18;46.46;101265.94;4996472;28;50837;-40
2021/10/06 01:08:58;;;;;;;;;1.00;1.00;;;;;21.18;46.70;101265.94;4984619;28;51106;-40
2021/10/06 01:11:23;;;;;;;;;1.00;1.00;;;;;21.18;46.76;101273.38;4998682;28;50962;-40
2021/10/06 01:13:49;;;;;;;;;1.75;0.00;;;;;21.18;46.97;101273.38;4996395;28;52250;-40
2021/10/06 01:16:15;;;;;;;;;0.25;0.00;;;;;21.18;46.61;101270.63;4980319;28;50979;-40
2021/10/06 01:18:40;;;;;;;;;1.00;1.00;;;;;21.18;46.82;101265.09;4985872;28;51023;-40
2021/10/06 01:21:17;;;;;;;;;0.75;0.75;;;;;21.17;46.95;101268.91;4987850;28;52868;-40
2021/10/06 01:23:48;;;;;;;;;1.00;0.00;;;;;21.17;47.10;101269.75;4981358;28;51378;-40
2021/10/06 01:26:19;;;;;;;;;0.00;0.00;;;;;21.17;47.04;101278.03;4981928;28;51345;-44
2021/10/06 01:28:53;;;;;;;;;1.00;0.25;;;;;21.17;46.41;101285.44;4989816;28;51016;-40
2021/10/06 01:31:19;;;;;;;;;1.00;1.00;;;;;21.16;46.40;101289.28;4996750;28;52836;-40
2021/10/06 01:33:45;;;;;;;;;2.00;0.75;;;;;21.17;47.02;101282.69;4996214;28;51055;-40
2021/10/06 01:36:11;;;;;;;;;0.00;0.00;;;;;21.16;46.87;101283.75;4989642;28;51227;-47
2021/10/06 01:38:37;;;;;;;;;0.25;0.25;;;;;21.16;46.94;101292.03;4993492;28;50872;-40
2021/10/06 01:41:03;;;;;;;;;1.00;1.00;;;;;21.15;46.87;101293.91;4994098;28;51969;-41
2021/10/06 01:43:29;;;;;;;;;0.00;0.00;;;;;21.15;46.59;101293.91;4991987;28;51101;-40
2021/10/06 01:45:55;;;;;;;;;0.00;0.00;;;;;21.15;46.65;101296.66;4994243;28;51051;-40
2021/10/06 01:48:20;;;;;;;;;0.00;0.00;;;;;21.15;46.54;101304.94;4986683;28;51151;-38
2021/10/06 01:50:45;;;;;;;;;0.25;0.25;;;;;21.15;47.02;101295.81;4989068;28;51177;-38
2021/10/06 01:53:14;;;;;;;;;0.25;0.25;;;;;21.14;46.40;101292.22;4978850;28;51038;-39
2021/10/06 01:55:41;;;;;;;;;1.00;1.00;;;;;21.14;47.04;101294.97;4985129;28;50905;-38
2021/10/06 01:58:11;;;;;;;;;2.00;0.00;;;;;21.14;46.60;101291.38;4981489;28;51343;-43
2021/10/06 02:00:38;;;;;;;;;3.00;1.25;;;;;21.14;46.45;101288.63;4983652;28;51382;-38
2021/10/06 02:03:03;;;;;;;;;0.00;0.00;;;;;21.15;46.94;101295.81;4977169;28;51103;-38
2021/10/06 02:05:29;;;;;;;;;1.25;0.00;;;;;21.14;46.56;101297.72;4983524;28;50924;-39
2021/10/06 02:07:54;;;;;;;;;1.00;1.00;;;;;21.14;46.88;101297.72;4984281;28;51063;-38
2021/10/06 02:10:20;;;;;;;;;0.00;0.00;;;;;21.13;46.33;101287.78;4981635;28;50999;-38
2021/10/06 02:12:46;;;;;;;;;0.00;0.00;;;;;21.13;46.73;101297.94;4988315;28;51124;-38
2021/10/06 02:15:11;;;;;;;;;0.25;0.00;;;;;21.12;46.61;101299.84;4978190;28;51701;-39
2021/10/06 02:17:37;;;;;;;;;0.00;0.00;;;;;21.11;47.02;101292.66;4997236;28;51040;-38
2021/10/06 02:20:04;;;;;;;;;1.00;0.00;;;;;21.12;46.73;101296.25;4995670;28;51707;-38
2021/10/06 02:22:30;;;;;;;;;0.00;0.00;;;;;21.11;46.78;101298.16;4997050;28;50998;-38
2021/10/06 02:24:56;;;;;;;;;1.75;0.75;;;;;21.11;46.45;101298.16;4986196;28;50972;-38
2021/10/06 02:27:21;;;;;;;;;0.00;0.00;;;;;21.10;46.55;101296.47;4987413;28;50960;-39
2021/10/06 02:29:46;;;;;;;;;2.00;0.25;;;;;21.11;46.81;101300.91;4993855;28;52728;-38
2021/10/06 02:32:12;;;;;;;;;1.50;0.00;;;;;21.10;46.74;101293.72;4980533;28;51043;-38
2021/10/06 02:34:37;;;;;;;;;1.00;1.00;;;;;21.10;46.80;101304.75;4984666;28;51199;-38
2021/10/06 02:37:03;;;;;;;;;0.00;0.00;;;;;21.10;46.84;101293.72;4978006;28;51273;-39
2021/10/06 02:39:28;;;;;;;;;2.50;1.00;;;;;21.10;47.06;101310.25;4977618;28;51764;-38
2021/10/06 02:41:54;;;;;;;;;0.00;0.00;;;;;21.10;46.79;101309.41;4979799;28;50959;-38
2021/10/06 02:44:19;;;;;;;;;0.25;0.25;;;;;21.10;47.26;101318.50;4982885;28;50968;-38
2021/10/06 02:46:44;;;;;;;;;1.00;1.00;;;;;21.09;47.12;101310.47;4987226;28;51206;-39
2021/10/06 02:49:10;;;;;;;;;1.25;0.25;;;;;21.10;47.14;101318.50;4979316;28;51062;-38
2021/10/06 02:51:35;;;;;;;;;0.75;0.75;;;;;21.09;47.16;101319.59;4994620;28;51190;-39
2021/10/06 02:54:01;;;;;;;;;0.00;0.00;;;;;21.08;46.78;101315.13;4996762;28;51241;-38
2021/10/06 02:56:26;;;;;;;;;3.50;1.00;;;;;21.08;46.81;101320.66;4989325;28;50977;-39
2021/10/06 02:58:52;;;;;;;;;2.00;0.75;;;;;21.08;46.79;101328.91;4979500;28;51872;-40
2021/10/06 03:01:17;;;;;;;;;0.50;0.50;;;;;21.08;46.80;101328.91;4989000;28;50888;-40
2021/10/06 03:03:43;;;;;;;;;1.00;0.00;;;;;21.08;46.78;101330.81;4977958;28;51156;-40
2021/10/06 03:06:09;;;;;;;;;1.00;1.00;;;;;21.07;46.95;101341.00;4981088;28;51194;-41
2021/10/06 03:08:35;;;;;;;;;2.00;0.50;;;;;21.08;47.27;101339.94;4977582;28;51141;-40
2021/10/06 03:11:02;;;;;;;;;1.00;1.00;;;;;21.08;46.93;101336.31;4985318;28;51167;-40
2021/10/06 03:13:28;;;;;;;;;1.25;1.25;;;;;21.08;46.94;101337.16;5014603;28;51292;-40
2021/10/06 03:16:00;;;;;;;;;0.25;0.25;;;;;21.08;47.24;101336.31;5008064;28;50984;-39
2021/10/06 03:18:26;;;;;;;;;0.00;0.00;;;;;21.08;46.78;101339.09;5015576;28;52019;-40
2021/10/06 03:20:53;;;;;;;;;0.00;0.00;;;;;21.07;47.26;101340.16;5012146;28;51036;-39
2021/10/06 03:23:19;;;;;;;;;1.25;0.00;;;;;21.06;46.90;101347.56;5003977;28;51052;-43
2021/10/06 03:25:44;;;;;;;;;0.00;0.00;;;;;21.06;47.21;101355.81;5001138;28;51314;-40
2021/10/06 03:28:10;;;;;;;;;1.00;1.00;;;;;21.05;47.23;101348.63;5005851;28;51687;-40
2021/10/06 03:30:35;;;;;;;;;2.00;0.00;;;;;21.06;47.20;101355.81;5014760;28;51089;-40
2021/10/06 03:33:01;;;;;;;;;1.00;1.00;;;;;21.05;46.75;101348.63;4983055;28;51315;-40
2021/10/06 03:35:26;;;;;;;;;1.50;1.00;;;;;21.06;47.13;101357.72;4996573;28;51218;-40
2021/10/06 03:37:52;;;;;;;;;1.00;0.00;;;;;21.04;47.27;101355.16;4997973;28;51929;-40
2021/10/06 03:40:18;;;;;;;;;1.25;1.00;;;;;21.04;47.12;101357.91;4997705;28;51221;-40
2021/10/06 03:42:44;;;;;;;;;0.00;0.00;;;;;21.04;46.86;101368.94;5009143;28;51140;-39
2021/10/06 03:45:10;;;;;;;;;1.25;1.25;;;;;21.04;47.35;101363.44;5004934;28;51026;-40
2021/10/06 03:47:36;;;;;;;;;0.50;0.50;;;;;21.03;46.86;101379.13;5009735;28;50981;-40
2021/10/06 03:50:03;;;;;;;;;0.75;0.75;;;;;21.02;47.41;101371.91;5015454;28;51409;-40
2021/10/06 03:52:30;;;;;;;;;1.00;1.00;;;;;21.03;46.80;101375.50;5001007;28;51101;-39
2021/10/06 03:54:55;;;;;;;;;1.00;1.00;;;;;21.03;46.80;101375.50;5013761;28;51101;-40
2021/10/06 03:57:21;;;;;;;;;0.75;0.75;;;;;21.02;46.89;101379.34;5006126;28;51248;-40
2021/10/06 03:59:46;;;;;;;;;0.50;0.50;;;;;21.02;47.30;101385.69;5015953;28;51089;-41
2021/10/06 04:02:11;;;;;;;;;0.50;0.50;;;;;21.03;47.07;101389.28;5005000;28;50914;-40
2021/10/06 04:04:37;;;;;;;;;2.00;0.50;;;;;21.02;47.37;101387.59;5015853;28;50915;-40
2021/10/06 04:07:02;;;;;;;;;0.75;0.75;;;;;21.02;47.03;101401.38;5015545;28;50843;-40
2021/10/06 04:09:28;;;;;;;;;1.00;1.00;;;;;21.00;46.89;101398.81;5012302;28;51031;-40
2021/10/06 04:11:53;;;;;;;;;0.00;0.00;;;;;21.00;47.02;101401.59;5004806;28;50932;-40
2021/10/06 04:14:19;;;;;;;;;0.75;0.75;;;;;21.02;47.22;101409.63;4996979;28;51345;-40
2021/10/06 04:16:44;;;;;;;;;2.75;1.00;;;;;21.02;47.41;101409.63;5003882;28;51055;-40
2021/10/06 04:19:09;;;;;;;;;0.50;0.25;;;;;21.01;46.83;101410.69;4989670;28;51296;-40
2021/10/06 04:21:35;;;;;;;;;0.00;0.00;;;;;21.01;46.77;101405.19;5015204;28;51066;-40
2021/10/06 04:24:00;;;;;;;;;1.00;1.00;;;;;21.00;46.86;101407.09;5016019;28;50980;-40
2021/10/06 04:26:26;;;;;;;;;1.00;0.00;;;;;21.00;47.00;101395.22;5006811;28;51119;-40
2021/10/06 04:28:51;;;;;;;;;0.00;0.00;;;;;21.00;46.83;101409.84;5007894;28;51032;-40
2021/10/06 04:31:19;;;;;;;;;0.00;0.00;;;;;21.00;46.87;101406.25;5001454;28;51160;-39
2021/10/06 04:33:47;;;;;;;;;0.25;0.25;;;;;21.00;47.22;101397.97;5012943;28;51666;-40
2021/10/06 04:36:14;;;;;;;;;1.00;1.00;;;;;21.00;47.19;101400.72;5007045;28;51875;-41
2021/10/06 04:38:40;;;;;;;;;1.00;1.00;;;;;20.99;47.09;101402.66;5013832;28;51248;-40
2021/10/06 04:41:05;;;;;;;;;0.00;0.00;;;;;20.99;47.24;101410.06;5007501;28;50926;-39
2021/10/06 04:43:30;;;;;;;;;0.00;0.00;;;;;20.99;47.30;101404.56;4989013;28;51440;-44
2021/10/06 04:45:56;;;;;;;;;0.00;0.00;;;;;20.98;47.25;101403.72;5006924;28;52595;-38
2021/10/06 04:48:21;;;;;;;;;0.00;0.00;;;;;20.98;46.80;101409.22;5010046;28;50931;-38
2021/10/06 04:50:47;;;;;;;;;4.00;0.00;;;;;20.98;46.74;101420.22;4990209;28;51133;-40
2021/10/06 04:53:12;;;;;;;;;0.00;0.00;;;;;20.98;46.91;101417.47;5012431;28;50985;-39
2021/10/06 04:55:38;;;;;;;;;0.00;0.00;;;;;20.98;47.20;101430.41;5002979;28;51882;-38
2021/10/06 04:58:04;;;;;;;;;0.75;0.00;;;;;20.99;46.29;101437.59;5012395;28;50994;-38
2021/10/06 05:00:30;;;;;;;;;1.75;0.00;;;;;20.96;46.04;101430.63;5005105;28;51036;-38
2021/10/06 05:02:55;;;;;;;;;1.00;1.00;;;;;20.93;45.48;101441.19;5010591;28;50898;-38
2021/10/06 05:05:20;;;;;;;;;1.00;0.00;;;;;20.90;45.90;101445.22;5004911;28;51161;-40
2021/10/06 05:07:46;;;;;;;;;2.00;0.00;;;;;20.88;45.27;101452.00;5009138;28;51045;-39
2021/10/06 05:10:11;;;;;;;;;1.50;0.75;;;;;20.84;45.13;101442.44;5002482;28;51593;-38
2021/10/06 05:12:37;;;;;;;;;1.00;0.25;;;;;20.82;45.23;101450.09;5000984;28;51194;-43
2021/10/06 05:15:03;;;;;;;;;0.25;0.25;;;;;20.81;45.64;101453.91;4988604;28;52093;-38
2021/10/06 05:17:28;;;;;;;;;1.75;1.00;;;;;20.79;45.69;101467.88;5003851;28;51139;-39
2021/10/06 05:19:53;;;;;;;;;1.00;0.75;;;;;20.78;46.34;101466.19;5005362;28;51066;-38
2021/10/06 05:22:19;;;;;;;;;3.00;1.00;;;;;20.79;46.02;101465.13;4981906;28;51097;-37
2021/10/06 05:24:44;;;;;;;;;1.00;1.00;;;;;20.80;46.60;101472.31;5016269;28;51876;-38
2021/10/06 05:27:10;;;;;;;;;0.25;0.00;;;;;20.80;45.88;101471.47;5004951;28;51004;-39
2021/10/06 05:29:35;;;;;;;;;1.00;1.00;;;;;20.82;46.23;101480.38;5003332;28;51053;-40
2021/10/06 05:32:04;;;;;;;;;1.50;0.25;;;;;20.80;46.46;101475.06;5014128;28;51139;-40
2021/10/06 05:34:33;;;;;;;;;2.25;0.00;;;;;20.81;46.06;101473.16;5015448;28;52693;-40
2021/10/06 05:36:58;;;;;;;;;2.25;0.00;;;;;20.82;46.42;101472.09;5009114;28;51584;-39
2021/10/06 05:39:25;;;;;;;;;1.00;1.00;;;;;20.82;45.99;101477.63;5008116;28;51141;-37
2021/10/06 05:41:50;;;;;;;;;1.50;1.00;;;;;20.82;46.26;101485.88;5001207;28;51169;-41
2021/10/06 05:44:16;;;;;;;;;4.50;2.75;;;;;20.84;46.17;101490.13;5002239;28;50921;-39
2021/10/06 05:46:41;;;;;;;;;1.00;0.00;;;;;20.83;46.38;101485.66;5007270;28;51133;-39
2021/10/06 05:49:07;;;;;;;;;2.00;1.00;;;;;20.84;46.42;101490.13;4988171;28;51103;-44
2021/10/06 05:51:33;;;;;;;;;2.75;0.00;;;;;20.87;46.48;101502.63;5006537;28;50993;-41
2021/10/06 05:53:58;;;;;;;;;2.00;1.00;;;;;20.85;46.41;101491.00;4988592;28;51778;-40
2021/10/06 05:56:23;;;;;;;;;0.50;0.50;;;;;20.86;46.79;101499.03;5012196;28;50939;-40
2021/10/06 05:58:49;;;;;;;;;5.25;1.00;;;;;20.87;46.62;101497.13;5006956;28;51117;-40
2021/10/06 06:01:14;;;;;;;;;0.00;0.00;;;;;20.87;47.26;101505.38;5015930;28;50932;-40
2021/10/06 06:03:39;;;;;;;;;0.00;0.00;;;;;20.87;47.59;101503.47;5005682;28;51683;-41
2021/10/06 06:06:05;;;;;;;;;2.00;2.00;;;;;20.88;47.59;101505.19;5007620;28;51053;-40
2021/10/06 06:08:31;;;;;;;;;2.00;0.00;;;;;20.89;47.31;101506.03;5012912;28;51263;-42
2021/10/06 06:10:57;;;;;;;;;1.00;1.00;;;;;20.90;46.91;101504.97;5000412;28;51242;-41
2021/10/06 06:13:22;;;;;;;;;1.00;0.75;;;;;20.89;47.14;101509.63;4998985;28;51039;-41
2021/10/06 06:15:52;;;;;;;;;0.50;0.00;;;;;20.90;47.86;101505.81;5010411;28;50907;-41
2021/10/06 06:18:17;;;;;;;;;1.50;0.25;;;;;20.90;47.72;101511.31;5008901;28;51097;-42
2021/10/06 06:20:43;;;;;;;;;1.50;0.00;;;;;20.91;47.52;101518.50;4991862;28;51256;-41
2021/10/06 06:23:08;;;;;;;;;1.00;0.00;;;;;20.90;47.40;101519.56;4999073;28;51306;-41
2021/10/06 06:25:34;;;;;;;;;0.00;0.00;;;;;20.91;47.57;101518.50;5009224;28;51264;-41
2021/10/06 06:27:59;;;;;;;;;2.00;0.25;;;;;20.92;47.84;101530.38;5012161;28;51143;-40
2021/10/06 06:30:24;;;;;;;;;0.00;0.00;;;;;20.92;47.79;101527.63;5016770;28;51125;-40
2021/10/06 06:32:51;;;;;;;;;0.75;0.75;;;;;20.92;47.55;101533.97;5015591;28;51671;-42
2021/10/06 06:35:17;;;;;;;;;1.00;1.00;;;;;20.91;47.35;101539.69;5005887;28;50973;-40
2021/10/06 06:37:42;;;;;;;;;1.00;1.00;;;;;20.93;47.53;101549.44;5007595;28;50972;-37
2021/10/06 06:40:08;;;;;;;;;2.50;1.00;;;;;20.94;47.79;101539.28;4997072;28;51257;-38
2021/10/06 06:42:34;;;;;;;;;0.75;0.75;;;;;20.94;47.81;101544.78;4998548;28;52144;-37
2021/10/06 06:44:59;;;;;;;;;0.50;0.25;;;;;20.95;47.04;101538.25;5004376;28;51096;-37
2021/10/06 06:47:25;;;;;;;;;1.00;1.00;;;;;20.93;47.29;101548.59;5005105;28;51085;-42
2021/10/06 06:49:51;;;;;;;;;0.75;0.50;;;;;20.93;47.05;101554.94;4996863;28;50899;-39
2021/10/06 06:52:16;;;;;;;;;2.25;1.00;;;;;20.93;46.68;101546.69;5012660;28;52002;-40
2021/10/06 06:54:42;;;;;;;;;2.75;0.75;;;;;20.94;46.90;101547.53;5009252;28;51449;-41
2021/10/06 06:57:08;;;;;;;;;3.50;1.00;;;;;20.94;46.80;101561.31;5015475;28;51608;-38
2021/10/06 06:59:33;;;;;;;;;1.75;0.75;;;;;20.93;46.90;101570.63;4998486;28;51143;-38
2021/10/06 07:01:59;;;;;;;;;1.75;1.75;;;;;20.93;46.63;101574.22;5003399;28;51823;-41
2021/10/06 07:04:24;;;;;;;;;2.00;1.00;;;;;20.92;46.75;101572.53;4995771;28;51197;-41
2021/10/06 07:06:53;;;;;;;;;0.25;0.25;;;;;20.92;46.51;101574.44;4996542;28;50919;-41
2021/10/06 07:09:23;;;;;;;;;1.00;0.00;;;;;20.92;46.95;101577.19;4996522;28;50950;-41
2021/10/06 07:11:48;;;;;;;;;4.00;1.00;;;;;20.92;46.51;101580.78;5000175;28;51850;-41
2021/10/06 07:14:14;;;;;;;;;2.50;1.00;;;;;20.91;46.36;101584.63;5006819;28;51219;-40
2021/10/06 07:16:39;;;;;;;;;1.00;1.00;;;;;20.91;46.82;101586.53;4999539;28;51051;-41
2021/10/06 07:19:05;;;;;;;;;2.00;1.75;;;;;20.91;46.40;101592.88;4995914;28;50983;-41
2021/10/06 07:21:30;;;;;;;;;0.50;0.50;;;;;20.92;46.72;101596.47;5008661;28;51179;-41
2021/10/06 07:23:56;;;;;;;;;1.00;1.00;;;;;20.91;46.77;101601.13;5003075;28;50921;-40
2021/10/06 07:26:21;;;;;;;;;0.00;0.00;;;;;20.91;46.61;101601.13;5006805;28;51216;-40
2021/10/06 07:28:47;;;;;;;;;1.25;1.00;;;;;20.91;46.20;101598.38;5010220;28;51092;-39
2021/10/06 07:31:12;;;;;;;;;2.00;1.25;;;;;20.91;46.66;101603.03;5002130;28;52156;-39
2021/10/06 07:33:38;;;;;;;;;1.25;0.75;;;;;20.90;46.58;101596.69;5005229;28;51605;-39
2021/10/06 07:36:03;;;;;;;;;1.50;1.00;;;;;20.91;46.06;101594.78;5015270;28;50893;-39
2021/10/06 07:38:29;;;;;;;;;2.50;2.00;;;;;20.91;46.28;101595.63;5007825;28;51038;-39
2021/10/06 07:40:54;;;;;;;;;2.00;1.00;;;;;20.89;46.14;101597.75;5005798;28;51874;-39
2021/10/06 07:43:19;;;;;;;;;1.25;1.25;;;;;20.90;46.60;101598.59;5015186;28;51492;-39
2021/10/06 07:45:45;;;;;;;;;1.25;1.25;;;;;20.90;46.41;101595.84;5015217;28;51201;-39
2021/10/06 07:48:11;;;;;;;;;2.00;2.00;;;;;20.90;46.51;101609.59;5007423;28;51084;-40
2021/10/06 07:50:36;;;;;;;;;1.75;1.00;;;;;20.90;46.12;101596.69;5003452;28;51924;-40
2021/10/06 07:53:02;;;;;;;;;2.25;1.50;;;;;20.90;46.15;101626.97;5007651;28;51073;-40
2021/10/06 07:55:27;;;;;;;;;0.00;0.00;;;;;20.89;46.39;101619.78;5015225;28;51002;-40
2021/10/06 07:57:53;;;;;;;;;1.00;1.00;;;;;20.89;46.43;101618.94;5007100;28;50994;-40
2021/10/06 08:00:19;;;;;;;;;1.75;1.25;;;;;20.89;46.23;101622.53;5003190;28;51625;-39
2021/10/06 08:02:45;;;;;;;;;2.75;2.75;;;;;20.89;46.31;101624.44;5009663;28;51217;-42
2021/10/06 08:05:10;;;;;;;;;3.50;2.00;;;;;20.89;46.19;101622.53;4998360;28;51258;-39
2021/10/06 08:07:36;;;;;;;;;1.50;1.50;;;;;20.89;46.00;101632.69;5012381;28;52246;-39
2021/10/06 08:10:04;;;;;;;;;1.00;1.00;;;;;20.90;45.88;101645.41;4982181;28;51878;-40
2021/10/06 08:12:30;;;;;;;;;1.75;1.00;;;;;20.90;45.86;101643.50;4997678;28;51235;-39
2021/10/06 08:14:55;;;;;;;;;4.00;2.50;;;;;20.90;45.97;101640.75;4986387;28;51052;-39
2021/10/06 08:17:20;;;;;;;;;2.25;0.75;;;;;20.91;45.81;101644.34;5000902;28;50928;-40
2021/10/06 08:19:46;;;;;;;;;3.00;1.75;;;;;20.91;45.61;101645.19;5003196;28;51416;-38
2021/10/06 08:22:13;;;;;;;;;4.00;2.50;;;;;20.91;46.20;101647.09;4996701;28;51140;-39
2021/10/06 08:24:39;;;;;;;;;1.00;1.00;;;;;20.92;45.76;101657.91;4999263;28;51468;-39
2021/10/06 08:27:04;;;;;;;;;2.25;2.25;;;;;20.93;46.25;101651.34;5009500;28;50952;-39
2021/10/06 08:29:30;;;;;;;;;3.00;1.75;;;;;20.94;46.13;101647.53;5013429;28;51610;-39
2021/10/06 08:31:55;;;;;;;;;3.00;2.00;;;;;20.95;45.60;101653.94;5000891;28;50970;-39
2021/10/06 08:34:20;;;;;;;;;4.50;3.50;;;;;20.97;45.59;101644.38;5018857;28;51117;-39
2021/10/06 08:36:46;;;;;;;;;4.25;4.00;;;;;21.00;45.98;101660.50;5005900;28;51228;-40
2021/10/06 08:39:11;;;;;;;;;3.00;2.25;;;;;21.03;45.68;101659.22;5013022;28;51013;-40
2021/10/06 08:41:37;;;;;;;;;3.25;2.00;;;;;21.07;46.01;101656.94;5008041;28;51134;-39
2021/10/06 08:44:03;;;;;;;;;3.00;2.00;;;;;21.10;45.89;101667.53;4982101;28;50979;-39
2021/10/06 08:46:28;;;;;;;;;2.25;2.25;;;;;21.12;45.59;101663.50;5011107;28;51050;-39
2021/10/06 08:48:54;;;;;;;;;3.00;2.25;;;;;21.15;45.58;101654.81;5011305;28;51017;-39
2021/10/06 08:51:22;;;;;;;;;1.25;1.25;;;;;21.18;45.47;101668.19;4998778;28;51326;-44
2021/10/06 08:53:48;;;;;;;;;3.75;1.75;;;;;21.20;45.37;101666.06;5003479;28;51149;-40
2021/10/06 08:56:15;;;;;;;;;2.00;2.00;;;;;21.22;45.83;101663.97;5010303;28;51152;-39
2021/10/06 08:58:40;;;;;;;;;1.25;1.25;;;;;21.25;45.31;101663.53;5016374;28;52030;-40
2021/10/06 09:01:06;;;;;;;;;2.00;2.00;;;;;21.28;45.39;101668.69;5018122;28;51042;-39
2021/10/06 09:03:36;;;;;;;;;2.25;2.25;;;;;21.31;45.21;101662.75;5009734;28;51062;-40
2021/10/06 09:06:04;;;;;;;;;2.00;1.25;;;;;21.35;45.30;101670.59;4999592;28;51157;-40
2021/10/06 09:08:30;;;;;;;;;3.00;3.00;;;;;21.39;45.56;101674.66;4998908;28;50961;-40
2021/10/06 09:10:56;;;;;;;;;3.75;3.00;;;;;21.43;45.67;101670.41;5012475;28;50933;-39
2021/10/06 09:13:32;;;;;;;;;4.25;2.00;;;;;21.48;44.99;101677.00;5011985;28;51113;-40
2021/10/06 09:15:58;;;;;;;;;7.25;1.00;;;;;21.52;44.93;101674.66;5008929;28;51095;-40
2021/10/06 09:18:29;;;;;;;;;2.00;2.00;;;;;21.56;45.42;101678.69;5007413;28;52082;-39
2021/10/06 09:20:58;;;;;;;;;2.00;2.00;;;;;21.60;45.42;101682.75;4982925;28;51026;-39
2021/10/06 09:23:24;;;;;;;;;2.00;2.00;;;;;21.64;45.51;101678.50;4999263;28;51221;-39
2021/10/06 09:26:05;;;;;;;;;4.00;2.00;;;;;21.68;45.48;101699.09;4997780;28;50969;-39
2021/10/06 09:28:37;;;;;;;;;5.00;2.75;;;;;21.71;44.77;101690.38;5015071;28;50918;-39
2021/10/06 09:31:20;;;;;;;;;1.00;1.00;;;;;21.74;45.25;101689.97;5010288;28;51408;-39
2021/10/06 09:33:49;;;;;;;;;2.00;1.75;;;;;21.77;44.86;101700.56;5013838;28;51266;-40
2021/10/06 09:36:21;;;;;;;;;3.25;1.75;;;;;21.80;45.04;101697.41;4999152;28;50925;-39
2021/10/06 09:38:55;;;;;;;;;1.00;1.00;;;;;21.84;44.61;101695.91;4996957;28;51628;-39
2021/10/06 09:41:27;;;;;;;;;1.75;1.75;;;;;21.88;44.53;101704.59;4974201;28;51475;-41
2021/10/06 09:44:14;;;;;;;;;2.75;2.75;;;;;21.91;44.72;101701.44;5012892;28;50939;-38
2021/10/06 09:46:39;;;;;;;;;3.75;2.25;;;;;21.92;44.47;101694.88;5003284;28;51046;-38
2021/10/06 09:49:19;;;;;;;;;2.00;1.00;;;;;21.95;44.44;101696.34;5014820;28;51980;-38
2021/10/06 09:51:45;;;;;;;;;2.00;2.00;;;;;21.98;44.32;101701.44;5015293;28;50951;-38
2021/10/06 09:54:10;;;;;;;;;2.25;2.25;;;;;21.98;44.32;101699.50;5016572;28;51128;-40
2021/10/06 09:56:45;;;;;;;;;4.00;2.50;;;;;22.02;44.58;101697.19;5013858;28;51285;-39
2021/10/06 09:59:15;;;;;;;;;2.00;1.75;;;;;22.04;44.06;101700.59;5015483;28;51071;-39
2021/10/06 10:01:42;;;;;;;;;1.00;1.00;;;;;22.06;44.00;101707.63;5012074;28;51330;-39
2021/10/06 10:04:09;;;;;;;;;2.75;2.75;;;;;22.06;44.24;101709.50;5013292;28;51325;-41
2021/10/06 10:06:37;;;;;;;;;2.25;2.25;;;;;22.06;44.06;101710.38;4983646;28;51321;-38
2021/10/06 10:09:06;;;;;;;;;2.00;1.00;;;;;22.06;43.93;101713.13;5016184;28;51895;-38
2021/10/06 10:11:34;;;;;;;;;1.25;1.25;;;;;22.05;43.64;101711.41;5010940;28;51154;-39
2021/10/06 10:14:03;;;;;;;;;3.25;2.25;;;;;22.05;43.83;101718.84;4998341;28;50898;-37
2021/10/06 10:16:29;;;;;;;;;4.00;1.50;;;;;22.04;44.01;101700.59;5013907;28;50938;-40
2021/10/06 10:19:01;;;;;;;;;1.00;1.00;;;;;22.03;44.22;101715.44;5015395;28;52516;-37
2021/10/06 10:21:29;;;;;;;;;2.50;2.50;;;;;22.02;44.17;101706.31;5009592;28;51378;-39
2021/10/06 10:24:21;;;;;;;;;4.00;1.00;;;;;22.03;43.67;101718.22;5005590;28;51040;-39
2021/10/06 10:26:58;;;;;;;;;4.50;2.00;;;;;22.02;43.68;101717.38;5010947;28;51475;-39
2021/10/06 10:29:42;;;;;;;;;1.50;1.50;;;;;22.01;43.81;101718.44;5003693;28;51311;-38
2021/10/06 10:32:20;;;;;;;;;4.50;1.50;;;;;22.00;43.70;101727.78;5002914;28;51309;-39
2021/10/06 10:35:14;;;;;;;;;1.50;1.50;;;;;22.00;44.08;101729.69;5005444;28;51135;-38
2021/10/06 10:37:48;;;;;;;;;1.50;1.50;;;;;22.00;43.80;101727.78;5008485;28;51118;-39
2021/10/06 10:40:35;;;;;;;;;1.75;1.75;;;;;22.02;44.07;101727.56;4997704;28;51696;-41
2021/10/06 10:43:03;;;;;;;;;4.25;3.50;;;;;22.03;43.74;101734.75;4996350;28;50989;-40
2021/10/06 10:45:44;;;;;;;;;3.25;1.50;;;;;22.01;43.69;101740.50;5004047;28;51267;-40
2021/10/06 10:48:11;;;;;;;;;2.00;2.00;;;;;22.01;44.05;101740.50;4991580;28;51302;-40
2021/10/06 10:50:42;;;;;;;;;3.75;3.00;;;;;22.01;44.03;101736.91;4999540;28;51749;-41
2021/10/06 10:53:09;;;;;;;;;1.75;1.75;;;;;22.01;44.08;101736.91;5007183;28;51136;-40
2021/10/06 10:55:54;;;;;;;;;2.25;2.25;;;;;22.00;44.01;101737.97;4999643;28;51099;-39
2021/10/06 10:58:34;;;;;;;;;4.25;1.75;;;;;21.99;43.67;101731.59;4999908;28;51139;-39
2021/10/06 11:01:05;;;;;;;;;1.75;1.00;;;;;21.99;43.70;101727.94;5011174;28;51183;-39
2021/10/06 11:03:30;;;;;;;;;2.00;2.00;;;;;21.97;43.87;101727.31;5000406;28;51334;-39
2021/10/06 11:06:01;;;;;;;;;2.25;2.25;;;;;21.97;43.79;101728.16;4998294;28;51061;-39
2021/10/06 11:08:28;;;;;;;;;1.75;1.50;;;;;21.98;43.86;101735.38;4996126;28;50926;-39
2021/10/06 11:11:12;;;;;;;;;1.50;1.50;;;;;21.98;43.30;101734.53;5008974;28;51108;-39
2021/10/06 11:13:40;;;;;;;;;2.00;2.00;;;;;21.98;43.20;101737.28;4999076;28;51277;-39
2021/10/06 11:16:07;;;;;;;;;4.00;2.00;;;;;21.98;43.73;101724.34;4978728;28;51137;-42
2021/10/06 11:18:58;;;;;;;;;3.50;1.75;;;;;21.98;43.03;101723.50;4997965;28;51091;-39
2021/10/06 11:21:39;;;;;;;;;3.75;2.75;;;;;21.98;43.38;101738.13;5002897;28;52800;-39
2021/10/06 11:24:20;;;;;;;;;5.25;2.50;;;;;22.00;43.47;101726.91;5011499;28;51498;-40